Time;durP1;ratioP1;P1;durP2;ratioP2;P2;SDS_P1;SDS_P2;PMS_P1;PMS_P2;Temp;Humidity;BMP_temperature;BMP_pressure;BME280_temperature;BME280_humidity;BME280_pressure;Samples;Min_cycle;Max_cycle;Signal;HPM_P1;HPM_P2
2022/04/18 00:00:53;;;;;;;5.47;4.80;;;6.00;98.10;;;;;;5005722;28;20233;-70
2022/04/18 00:03:22;;;;;;;4.95;4.55;;;6.00;98.00;;;;;;5011414;27;20819;-70
2022/04/18 00:05:49;;;;;;;5.70;4.50;;;6.00;98.10;;;;;;5003482;28;20301;-66
2022/04/18 00:08:17;;;;;;;6.03;4.85;;;6.00;98.20;;;;;;5002645;28;20687;-65
2022/04/18 00:10:45;;;;;;;5.97;5.38;;;6.00;98.40;;;;;;5007763;28;20740;-65
2022/04/18 00:13:16;;;;;;;10.52;5.22;;;6.10;98.40;;;;;;5009846;27;20877;-65
2022/04/18 00:15:43;;;;;;;5.88;4.80;;;6.10;98.30;;;;;;5005953;28;20210;-68
2022/04/18 00:18:11;;;;;;;6.55;4.80;;;6.20;98.60;;;;;;4996638;28;20217;-71
2022/04/18 00:20:40;;;;;;;5.95;5.00;;;6.10;98.70;;;;;;5000648;28;20223;-73
2022/04/18 00:23:08;;;;;;;6.43;4.65;;;6.00;99.00;;;;;;5004439;28;20674;-72
2022/04/18 00:25:36;;;;;;;7.07;4.57;;;6.00;99.10;;;;;;5011214;28;20706;-70
2022/04/18 00:28:05;;;;;;;4.85;4.45;;;5.90;99.30;;;;;;4996148;28;20422;-71
2022/04/18 00:30:33;;;;;;;6.63;5.88;;;5.80;99.40;;;;;;4997769;27;20221;-72
2022/04/18 00:33:00;;;;;;;8.00;5.45;;;5.80;99.50;;;;;;5020063;28;20786;-71
2022/04/18 00:35:28;;;;;;;4.82;4.25;;;5.70;99.70;;;;;;5020969;27;20292;-70
2022/04/18 00:37:57;;;;;;;4.70;4.30;;;5.70;99.80;;;;;;5003816;28;20211;-71
2022/04/18 00:40:25;;;;;;;7.47;4.10;;;5.70;99.90;;;;;;5004955;28;20290;-71
2022/04/18 00:43:01;;;;;;;5.30;4.78;;;5.60;99.90;;;;;;5006427;28;20217;-71
2022/04/18 00:45:28;;;;;;;5.22;4.50;;;5.60;99.90;;;;;;5019866;28;20210;-70
2022/04/18 00:47:56;;;;;;;4.90;4.40;;;5.60;99.90;;;;;;5005703;28;20215;-71
2022/04/18 00:50:27;;;;;;;5.20;3.85;;;5.60;99.90;;;;;;5008722;27;20206;-69
2022/04/18 00:52:56;;;;;;;7.13;5.22;;;5.60;99.90;;;;;;5014009;28;20302;-70
2022/04/18 00:55:26;;;;;;;5.30;4.80;;;5.50;99.90;;;;;;5000062;28;20207;-69
2022/04/18 00:57:55;;;;;;;6.65;4.40;;;5.50;99.90;;;;;;5011158;28;20471;-69
2022/04/18 01:00:23;;;;;;;8.52;4.70;;;5.50;99.90;;;;;;5016492;28;20206;-70
2022/04/18 01:02:51;;;;;;;4.47;4.07;;;5.50;99.90;;;;;;5015965;28;20208;-69
2022/04/18 01:05:19;;;;;;;4.57;4.18;;;5.40;99.90;;;;;;4995911;27;20764;-69
2022/04/18 01:07:47;;;;;;;5.35;4.63;;;5.40;99.90;;;;;;4998379;28;20211;-70
2022/04/18 01:10:16;;;;;;;4.47;4.07;;;5.40;99.90;;;;;;4997474;28;20722;-70
2022/04/18 01:12:44;;;;;;;5.28;4.80;;;5.40;99.90;;;;;;4996748;28;20294;-70
2022/04/18 01:15:12;;;;;;;4.75;4.38;;;5.40;99.90;;;;;;4996731;27;20206;-70
2022/04/18 01:17:40;;;;;;;6.97;5.05;;;5.40;99.90;;;;;;4996134;28;20708;-70
2022/04/18 01:20:09;;;;;;;5.68;4.60;;;5.40;99.90;;;;;;5000331;28;20211;-70
2022/04/18 01:22:39;;;;;;;7.28;4.75;;;5.40;99.90;;;;;;5016191;28;20774;-72
2022/04/18 01:30:38;;;;;;;5.78;4.45;;;5.30;99.90;;;;;;5016020;28;20380;-69
2022/04/18 01:33:06;;;;;;;6.90;5.35;;;5.30;99.90;;;;;;5018983;28;20280;-69
2022/04/18 01:35:36;;;;;;;6.03;4.93;;;5.20;99.90;;;;;;5019003;28;20199;-70
2022/04/18 01:38:05;;;;;;;6.05;5.15;;;5.20;99.90;;;;;;5009806;27;20368;-71
2022/04/18 01:40:33;;;;;;;5.95;4.57;;;5.20;99.90;;;;;;4999683;28;20743;-72
2022/04/18 01:43:01;;;;;;;6.70;4.63;;;5.20;99.90;;;;;;4999474;28;20580;-70
2022/04/18 01:45:29;;;;;;;5.55;4.55;;;5.20;99.90;;;;;;4999421;28;20227;-70
2022/04/18 01:47:56;;;;;;;5.53;4.70;;;5.10;99.90;;;;;;4999224;28;20677;-70
2022/04/18 01:50:24;;;;;;;6.63;4.55;;;5.10;99.90;;;;;;4998864;28;20584;-71
2022/04/18 01:52:53;;;;;;;4.95;4.60;;;5.10;99.90;;;;;;4998263;27;20207;-69
2022/04/18 01:55:22;;;;;;;5.88;4.90;;;5.10;99.90;;;;;;5001362;28;20323;-70
2022/04/18 01:57:50;;;;;;;7.95;4.90;;;5.10;99.90;;;;;;4998120;28;20321;-70
2022/04/18 02:00:17;;;;;;;5.53;5.13;;;5.10;99.90;;;;;;4999661;28;20226;-69
2022/04/18 02:02:45;;;;;;;7.25;5.35;;;5.10;99.90;;;;;;5018003;27;20282;-70
2022/04/18 02:05:13;;;;;;;8.18;4.82;;;5.10;99.90;;;;;;5018381;28;20496;-69
2022/04/18 02:07:41;;;;;;;6.55;4.85;;;5.10;99.90;;;;;;5017722;27;20657;-70
2022/04/18 02:10:09;;;;;;;7.93;6.53;;;5.10;99.90;;;;;;5001368;28;20580;-69
2022/04/18 02:12:38;;;;;;;6.07;4.88;;;5.20;99.90;;;;;;5000121;28;20227;-69
2022/04/18 02:15:08;;;;;;;7.18;5.70;;;5.20;99.90;;;;;;5007104;27;20619;-70
2022/04/18 02:17:35;;;;;;;6.10;4.95;;;5.20;99.90;;;;;;5013797;28;20206;-71
2022/04/18 02:20:04;;;;;;;6.90;5.60;;;5.20;99.90;;;;;;5014167;28;20284;-70
2022/04/18 02:22:33;;;;;;;5.85;5.25;;;5.10;99.90;;;;;;5005372;28;20592;-72
2022/04/18 02:25:01;;;;;;;5.43;4.78;;;5.10;99.90;;;;;;5007162;27;20487;-72
2022/04/18 02:27:29;;;;;;;6.65;5.95;;;5.10;99.90;;;;;;4997998;28;20442;-71
2022/04/18 02:29:58;;;;;;;5.97;4.78;;;5.10;99.90;;;;;;5005583;28;20213;-71
2022/04/18 02:35:11;;;;;;;10.30;6.53;;;5.00;99.90;;;;;;4997733;28;20210;-72
2022/04/18 02:37:39;;;;;;;7.93;5.80;;;5.00;99.90;;;;;;4997935;28;20205;-72
2022/04/18 02:40:08;;;;;;;6.75;6.05;;;5.00;99.90;;;;;;4997936;28;20217;-71
2022/04/18 02:42:36;;;;;;;5.70;5.28;;;4.90;99.90;;;;;;5014405;27;20233;-72
2022/04/18 02:45:06;;;;;;;5.93;5.10;;;4.80;99.90;;;;;;5020978;28;20227;-71
2022/04/18 02:47:34;;;;;;;7.70;6.07;;;4.70;99.90;;;;;;5018141;28;20275;-71
2022/04/18 02:50:01;;;;;;;9.85;6.53;;;4.70;99.90;;;;;;5017947;28;20608;-71
2022/04/18 02:52:29;;;;;;;8.10;5.65;;;4.80;99.90;;;;;;5018018;28;20223;-71
2022/04/18 02:54:57;;;;;;;5.95;5.45;;;4.90;99.90;;;;;;4997909;27;20215;-71
2022/04/18 02:57:25;;;;;;;9.02;6.10;;;4.80;99.90;;;;;;4999603;28;20203;-71
2022/04/18 02:59:53;;;;;;;7.38;6.00;;;4.90;99.90;;;;;;4999317;28;20733;-71
2022/04/18 03:02:22;;;;;;;6.90;6.10;;;4.90;99.90;;;;;;4998915;28;20223;-70
2022/04/18 03:04:50;;;;;;;9.60;6.03;;;4.90;99.90;;;;;;4997988;28;20381;-71
2022/04/18 03:07:19;;;;;;;6.80;5.93;;;4.90;99.90;;;;;;4997238;28;20211;-71
2022/04/18 03:09:47;;;;;;;7.80;5.10;;;4.90;99.90;;;;;;4997573;28;20238;-71
2022/04/18 03:12:15;;;;;;;7.93;6.50;;;4.80;99.90;;;;;;4999943;28;20292;-71
2022/04/18 03:14:43;;;;;;;9.65;5.43;;;4.80;99.90;;;;;;5017295;27;20421;-71
2022/04/18 03:17:11;;;;;;;8.02;6.85;;;4.80;99.90;;;;;;5017156;28;20315;-71
2022/04/18 03:19:41;;;;;;;6.20;5.60;;;4.70;99.90;;;;;;5017277;28;20210;-71
2022/04/18 03:22:09;;;;;;;7.38;6.63;;;4.70;99.90;;;;;;5017382;28;20431;-71
2022/04/18 03:24:37;;;;;;;7.97;5.90;;;4.70;99.90;;;;;;5019015;28;20489;-71
2022/04/18 03:27:05;;;;;;;8.00;6.10;;;4.70;99.90;;;;;;5019641;28;20214;-71
2022/04/18 03:29:33;;;;;;;9.15;6.35;;;4.70;99.90;;;;;;5016219;28;20194;-69
2022/04/18 03:32:01;;;;;;;6.43;5.82;;;4.80;99.90;;;;;;5015359;28;20215;-71
2022/04/18 03:34:29;;;;;;;8.23;6.55;;;4.80;99.90;;;;;;5016922;28;20576;-70
2022/04/18 03:39:54;;;;;;;7.05;6.45;;;4.60;99.90;;;;;;4997576;28;20234;-70
2022/04/18 03:42:30;;;;;;;8.55;5.93;;;4.60;99.90;;;;;;4997278;28;20386;-72
2022/04/18 03:45:02;;;;;;;9.07;6.40;;;4.60;99.90;;;;;;5015141;27;20301;-70
2022/04/18 03:47:30;;;;;;;8.63;6.07;;;4.70;99.90;;;;;;5017233;28;20214;-70
2022/04/18 03:49:58;;;;;;;7.82;6.93;;;4.60;99.90;;;;;;5017475;28;20206;-72
2022/04/18 03:52:27;;;;;;;6.60;5.90;;;4.60;99.90;;;;;;5017252;28;20236;-69
2022/04/18 03:54:55;;;;;;;8.38;6.63;;;4.60;99.90;;;;;;5016795;28;20198;-71
2022/04/18 03:57:23;;;;;;;7.72;6.93;;;4.50;99.90;;;;;;5018144;28;20439;-72
2022/04/18 03:59:51;;;;;;;10.82;6.93;;;4.60;99.90;;;;;;5017242;28;20206;-71
2022/04/18 04:02:19;;;;;;;8.13;7.32;;;4.60;99.90;;;;;;5017156;27;20317;-71
2022/04/18 04:04:47;;;;;;;10.02;7.75;;;4.50;99.90;;;;;;5017267;28;20251;-71
2022/04/18 04:07:15;;;;;;;10.30;7.05;;;4.50;99.90;;;;;;5017111;28;20429;-71
2022/04/18 04:09:44;;;;;;;11.57;7.55;;;4.40;99.90;;;;;;5016356;27;20238;-70
2022/04/18 04:12:12;;;;;;;7.53;5.90;;;4.40;99.90;;;;;;5000598;28;20231;-70
2022/04/18 04:14:40;;;;;;;8.27;6.43;;;4.30;99.90;;;;;;5000039;28;20198;-71
2022/04/18 04:17:07;;;;;;;9.30;6.95;;;4.30;99.90;;;;;;4997684;28;20213;-71
2022/04/18 04:19:36;;;;;;;8.50;7.18;;;4.30;99.90;;;;;;5002746;28;20479;-70
2022/04/18 04:22:04;;;;;;;10.05;6.13;;;4.20;99.90;;;;;;5016511;27;20685;-69
2022/04/18 04:24:32;;;;;;;9.73;7.00;;;4.20;99.90;;;;;;5017117;28;20438;-71
2022/04/18 04:27:01;;;;;;;9.90;7.72;;;4.20;99.90;;;;;;5016181;28;20250;-70
2022/04/18 04:29:29;;;;;;;9.93;7.00;;;4.10;99.90;;;;;;5017130;28;20285;-71
2022/04/18 04:31:57;;;;;;;8.30;6.38;;;4.10;99.90;;;;;;5016269;28;20233;-71
2022/04/18 04:34:25;;;;;;;7.72;6.78;;;4.10;99.90;;;;;;5016254;28;20261;-72
2022/04/18 04:36:53;;;;;;;7.88;6.65;;;4.10;99.90;;;;;;5016425;28;20509;-71
2022/04/18 04:39:20;;;;;;;10.70;7.45;;;4.10;99.90;;;;;;5016431;28;20238;-71
2022/04/18 04:41:48;;;;;;;9.18;7.40;;;4.10;99.90;;;;;;5016588;28;20222;-71
2022/04/18 04:44:17;;;;;;;9.25;7.15;;;4.10;99.90;;;;;;5063905;28;20760;-70
2022/04/18 04:46:45;;;;;;;8.80;6.60;;;4.10;99.90;;;;;;5120067;27;20377;-72
2022/04/18 04:49:13;;;;;;;11.23;6.03;;;4.10;99.90;;;;;;5121318;27;20191;-71
2022/04/18 04:51:41;;;;;;;10.25;6.75;;;4.20;99.90;;;;;;5121597;27;20230;-71
2022/04/18 04:54:09;;;;;;;9.43;7.20;;;4.20;99.90;;;;;;5121781;27;20325;-68
2022/04/18 04:56:36;;;;;;;8.55;6.95;;;4.20;99.90;;;;;;5120042;27;20191;-70
2022/04/18 04:59:04;;;;;;;8.70;7.05;;;4.20;99.90;;;;;;5120061;28;20194;-72
2022/04/18 05:01:34;;;;;;;7.60;6.85;;;4.30;99.90;;;;;;5120143;27;20588;-71
2022/04/18 05:04:02;;;;;;;8.50;6.78;;;4.30;99.90;;;;;;5119028;27;20229;-69
2022/04/18 05:06:29;;;;;;;8.20;6.47;;;4.30;99.90;;;;;;5121984;27;20823;-72
2022/04/18 05:08:57;;;;;;;10.60;7.05;;;4.30;99.90;;;;;;5123504;27;20372;-72
2022/04/18 05:11:26;;;;;;;9.93;7.20;;;4.40;99.90;;;;;;5123611;27;20674;-71
2022/04/18 05:13:54;;;;;;;9.07;6.85;;;4.40;99.90;;;;;;5055988;27;20645;-67
2022/04/18 05:16:22;;;;;;;9.32;8.32;;;4.50;99.90;;;;;;4999418;28;20217;-67
2022/04/18 05:18:52;;;;;;;8.13;6.38;;;4.50;99.90;;;;;;5001736;28;20207;-66
2022/04/18 05:21:19;;;;;;;11.18;7.55;;;4.50;99.90;;;;;;4998601;27;20506;-68
2022/04/18 05:23:48;;;;;;;9.32;7.97;;;4.60;99.90;;;;;;5014578;28;20215;-68
2022/04/18 05:26:16;;;;;;;8.63;6.82;;;4.70;99.90;;;;;;5008081;28;20234;-68
2022/04/18 05:28:43;;;;;;;8.80;7.40;;;4.70;99.90;;;;;;4999225;28;20230;-67
2022/04/18 05:31:11;;;;;;;12.60;7.38;;;4.80;99.90;;;;;;4998841;28;20230;-68
2022/04/18 05:33:39;;;;;;;11.98;8.55;;;4.90;99.90;;;;;;4998556;27;20248;-68
2022/04/18 05:36:08;;;;;;;12.85;8.55;;;4.90;99.90;;;;;;4998894;28;20440;-68
2022/04/18 05:38:36;;;;;;;9.52;7.95;;;5.00;99.90;;;;;;4998691;27;20207;-68
2022/04/18 05:41:04;;;;;;;8.80;7.03;;;5.10;99.90;;;;;;4998344;28;20222;-68
2022/04/18 05:43:32;;;;;;;8.52;7.72;;;5.20;99.90;;;;;;4998485;28;20233;-68
2022/04/18 05:46:05;;;;;;;9.15;8.25;;;5.30;99.90;;;;;;5014810;28;20297;-68
2022/04/18 05:48:33;;;;;;;9.18;7.68;;;5.40;99.90;;;;;;5005679;27;20210;-68
2022/04/18 05:51:01;;;;;;;8.82;7.93;;;5.50;99.90;;;;;;5004970;28;20220;-68
2022/04/18 05:53:30;;;;;;;8.70;7.85;;;5.50;99.90;;;;;;5005374;28;20570;-68
2022/04/18 05:55:58;;;;;;;9.50;8.32;;;5.60;99.90;;;;;;5005663;28;20213;-68
2022/04/18 05:58:26;;;;;;;9.25;7.97;;;5.70;99.90;;;;;;5009704;28;20373;-68
2022/04/18 06:00:54;;;;;;;10.13;7.95;;;5.80;99.90;;;;;;5012121;28;20223;-67
2022/04/18 06:03:22;;;;;;;9.50;7.65;;;5.90;99.90;;;;;;5013638;28;20259;-69
2022/04/18 06:05:51;;;;;;;8.65;7.80;;;6.00;99.90;;;;;;5003319;27;20246;-69
2022/04/18 06:08:19;;;;;;;8.43;6.85;;;6.10;99.90;;;;;;5010491;28;20599;-69
2022/04/18 06:10:48;;;;;;;9.32;7.20;;;6.20;99.90;;;;;;5012737;28;20455;-69
2022/04/18 06:13:15;;;;;;;9.60;7.60;;;6.30;99.90;;;;;;5008699;28;20221;-69
2022/04/18 06:15:43;;;;;;;9.45;8.38;;;6.40;99.90;;;;;;5012147;27;20328;-68
2022/04/18 06:18:11;;;;;;;10.27;7.38;;;6.50;99.90;;;;;;5012290;28;20286;-67
2022/04/18 06:20:42;;;;;;;9.18;8.20;;;6.50;99.90;;;;;;5008510;27;20231;-69
2022/04/18 06:23:10;;;;;;;10.70;8.10;;;6.70;99.90;;;;;;5000888;27;20217;-68
2022/04/18 06:25:38;;;;;;;9.27;8.07;;;6.70;99.90;;;;;;5009030;28;20206;-68
2022/04/18 06:28:07;;;;;;;11.30;7.75;;;6.80;99.90;;;;;;4998845;28;20230;-68
2022/04/18 06:30:35;;;;;;;11.00;7.35;;;6.90;99.90;;;;;;5011241;27;20802;-69
2022/04/18 06:33:03;;;;;;;11.30;8.68;;;7.00;99.90;;;;;;5002551;28;20220;-67
2022/04/18 06:35:31;;;;;;;10.90;9.77;;;7.10;99.90;;;;;;5011391;28;20493;-67
2022/04/18 06:37:58;;;;;;;8.88;7.95;;;7.20;99.90;;;;;;5014375;28;20209;-70
2022/04/18 06:40:26;;;;;;;9.13;7.32;;;7.40;99.90;;;;;;5020764;28;20209;-68
2022/04/18 06:42:54;;;;;;;8.40;7.60;;;7.50;99.90;;;;;;5019290;28;20728;-69
2022/04/18 06:45:24;;;;;;;9.68;8.02;;;7.60;99.90;;;;;;5046024;27;20202;-69
2022/04/18 06:47:52;;;;;;;10.40;7.80;;;7.70;99.90;;;;;;5065684;27;20950;-69
2022/04/18 06:50:20;;;;;;;8.88;7.88;;;7.80;99.90;;;;;;5117038;27;20853;-68
2022/04/18 06:52:49;;;;;;;9.00;7.88;;;7.90;99.90;;;;;;5017891;28;20575;-67
2022/04/18 06:55:18;;;;;;;18.00;7.80;;;8.00;99.90;;;;;;5010432;27;20214;-67
2022/04/18 06:57:45;;;;;;;9.95;7.53;;;8.10;99.90;;;;;;5015315;28;20219;-67
2022/04/18 07:00:13;;;;;;;10.90;7.60;;;8.20;99.90;;;;;;5003848;28;20394;-67
2022/04/18 07:02:46;;;;;;;7.97;6.63;;;8.30;99.90;;;;;;5043525;28;20226;-67
2022/04/18 07:05:14;;;;;;;7.82;7.03;;;8.40;99.90;;;;;;5032955;28;20290;-68
2022/04/18 07:07:42;;;;;;;8.95;6.45;;;8.50;99.90;;;;;;5020140;28;20218;-68
2022/04/18 07:10:10;;;;;;;11.10;7.82;;;8.60;99.90;;;;;;5009616;28;20367;-66
2022/04/18 07:12:38;;;;;;;8.45;6.47;;;8.70;99.90;;;;;;5008708;27;20218;-67
2022/04/18 07:15:07;;;;;;;7.55;6.85;;;8.80;99.90;;;;;;5014353;28;20575;-67
2022/04/18 07:17:34;;;;;;;8.02;7.22;;;8.90;99.90;;;;;;5022662;27;20198;-67
2022/04/18 07:20:04;;;;;;;6.65;5.95;;;9.00;99.90;;;;;;5008719;28;20203;-67
2022/04/18 07:22:32;;;;;;;8.63;7.53;;;9.10;99.90;;;;;;5006663;28;20408;-67
2022/04/18 07:25:00;;;;;;;8.43;6.88;;;9.20;99.90;;;;;;5006110;28;20317;-66
2022/04/18 07:27:28;;;;;;;10.95;8.95;;;9.30;99.90;;;;;;5009235;27;20211;-67
2022/04/18 07:29:56;;;;;;;9.15;7.88;;;9.40;99.90;;;;;;5018167;28;20203;-68
2022/04/18 07:32:24;;;;;;;9.18;6.93;;;9.50;99.90;;;;;;5030896;28;20236;-67
2022/04/18 07:34:53;;;;;;;13.50;8.57;;;9.60;99.90;;;;;;5033060;28;20270;-66
2022/04/18 07:37:22;;;;;;;10.93;7.60;;;9.70;99.90;;;;;;5026625;27;20209;-67
2022/04/18 07:39:53;;;;;;;8.20;6.68;;;9.80;99.90;;;;;;5021474;28;20211;-66
2022/04/18 07:42:21;;;;;;;7.25;6.45;;;9.90;99.90;;;;;;5035233;28;20232;-68
2022/04/18 07:44:49;;;;;;;10.82;8.60;;;10.00;99.90;;;;;;5036553;28;20322;-67
2022/04/18 07:47:17;;;;;;;7.88;7.05;;;10.00;99.90;;;;;;5027634;27;20302;-68
2022/04/18 07:49:45;;;;;;;11.07;7.93;;;10.10;99.90;;;;;;5017435;28;20203;-71
2022/04/18 07:52:13;;;;;;;9.35;8.00;;;10.20;99.90;;;;;;5023237;28;20313;-71
2022/04/18 07:54:44;;;;;;;9.13;7.57;;;10.30;99.90;;;;;;5026168;28;20209;-74
2022/04/18 07:57:12;;;;;;;11.30;7.80;;;10.40;99.90;;;;;;5020983;27;20639;-72
2022/04/18 07:59:40;;;;;;;9.00;6.20;;;10.50;99.90;;;;;;5016398;27;20599;-72
2022/04/18 08:02:09;;;;;;;8.50;7.68;;;10.60;99.90;;;;;;5034330;28;20605;-72
2022/04/18 08:04:39;;;;;;;11.45;7.70;;;10.80;99.90;;;;;;5036150;28;20202;-72
2022/04/18 08:07:07;;;;;;;10.00;7.57;;;10.80;99.90;;;;;;5024968;28;20224;-70
2022/04/18 08:09:34;;;;;;;9.93;7.80;;;10.90;99.90;;;;;;5025349;27;20205;-73
2022/04/18 08:12:04;;;;;;;7.93;6.82;;;10.90;99.90;;;;;;5022821;28;20736;-71
2022/04/18 08:14:32;;;;;;;9.13;7.38;;;11.00;99.90;;;;;;5022348;28;20197;-74
2022/04/18 08:17:00;;;;;;;9.50;6.37;;;11.10;99.90;;;;;;5037357;28;20580;-71
2022/04/18 08:19:28;;;;;;;8.82;7.90;;;11.20;99.90;;;;;;5016898;28;20480;-72
2022/04/18 08:21:56;;;;;;;9.27;7.30;;;11.30;99.90;;;;;;5022989;28;20230;-71
2022/04/18 08:24:24;;;;;;;9.47;7.93;;;11.40;99.90;;;;;;5031349;28;20444;-72
2022/04/18 08:26:54;;;;;;;7.97;7.18;;;11.50;99.90;;;;;;5031572;28;20438;-69
2022/04/18 08:29:24;;;;;;;9.40;8.33;;;11.60;99.90;;;;;;5015542;27;20697;-70
2022/04/18 08:31:52;;;;;;;10.07;7.87;;;11.60;99.90;;;;;;5009748;28;20771;-71
2022/04/18 08:34:20;;;;;;;11.97;8.00;;;11.70;99.90;;;;;;5008693;28;20483;-70
2022/04/18 08:36:48;;;;;;;9.77;8.10;;;11.80;99.90;;;;;;5010834;28;20661;-72
2022/04/18 08:39:16;;;;;;;8.93;8.03;;;11.90;99.90;;;;;;5010970;28;20491;-67
2022/04/18 08:41:46;;;;;;;9.10;7.47;;;11.90;99.90;;;;;;5011595;28;20971;-70
2022/04/18 08:44:14;;;;;;;12.37;9.37;;;11.90;99.90;;;;;;5017690;28;20473;-72
2022/04/18 08:46:43;;;;;;;8.53;7.70;;;11.90;99.90;;;;;;5025625;28;20715;-71
2022/04/18 08:54:59;;;;;;;9.47;7.50;;;12.20;99.90;;;;;;5032117;27;20464;-71
2022/04/18 08:57:29;;;;;;;9.40;7.70;;;12.30;99.90;;;;;;5024040;28;20541;-70
2022/04/18 08:59:59;;;;;;;10.30;7.93;;;12.20;99.90;;;;;;5033703;28;20720;-71
2022/04/18 09:02:29;;;;;;;8.20;7.00;;;12.30;99.90;;;;;;5036314;28;20721;-72
2022/04/18 09:04:59;;;;;;;8.43;7.47;;;12.40;99.90;;;;;;5023507;27;20496;-71
2022/04/18 09:07:27;;;;;;;7.93;7.13;;;12.50;99.90;;;;;;5019366;28;20453;-71
2022/04/18 09:09:58;;;;;;;9.20;8.20;;;12.40;99.90;;;;;;5024493;28;21030;-70
2022/04/18 09:12:29;;;;;;;7.90;7.10;;;12.50;99.90;;;;;;5022668;28;20553;-72
2022/04/18 09:15:00;;;;;;;10.00;7.50;;;12.50;99.90;;;;;;5022135;28;21025;-73
2022/04/18 09:17:32;;;;;;;8.30;7.30;;;12.60;99.90;;;;;;5021396;28;20748;-71
2022/04/18 09:20:12;;;;;;;9.53;6.80;;;12.70;99.90;;;;;;5027849;28;20461;-72
2022/04/18 09:22:43;;;;;;;11.77;8.10;;;12.80;99.90;;;;;;5018643;27;20903;-72
2022/04/18 09:25:20;;;;;;;8.60;7.10;;;12.80;99.90;;;;;;5022303;28;20560;-72
2022/04/18 09:27:54;;;;;;;7.00;6.27;;;12.90;99.90;;;;;;5027755;28;20451;-70
2022/04/18 09:30:31;;;;;;;8.73;7.27;;;13.00;99.90;;;;;;5026647;27;20460;-72
2022/04/18 09:33:04;;;;;;;8.93;7.93;;;13.00;99.90;;;;;;5026986;28;20751;-72
2022/04/18 09:35:33;;;;;;;8.30;7.40;;;13.00;99.90;;;;;;5024575;28;20982;-73
2022/04/18 09:38:04;;;;;;;9.87;6.53;;;13.00;99.90;;;;;;5033828;28;20528;-73
2022/04/18 09:40:35;;;;;;;8.47;7.53;;;13.00;99.90;;;;;;5015412;28;20470;-73
2022/04/18 09:43:03;;;;;;;9.13;7.00;;;13.20;99.90;;;;;;5016321;27;20872;-73
2022/04/18 09:45:33;;;;;;;8.83;7.87;;;13.20;99.90;;;;;;5017294;28;20463;-73
2022/04/18 09:48:02;;;;;;;8.77;7.60;;;13.30;99.90;;;;;;5024192;27;20800;-74
2022/04/18 09:53:18;;;;;;;7.97;7.17;;;13.30;99.90;;;;;;5044889;28;20472;-73
2022/04/18 09:55:47;;;;;;;8.07;6.83;;;13.30;99.90;;;;;;5042069;28;20505;-74
2022/04/18 09:58:15;;;;;;;9.50;7.27;;;13.30;99.90;;;;;;5034981;27;20701;-71
2022/04/18 10:01:05;;;;;;;6.70;6.10;;;13.40;99.90;;;;;;5014698;28;20473;-72
2022/04/18 10:03:36;;;;;;;8.40;7.40;;;13.40;99.90;;;;;;5021063;28;20456;-75
2022/04/18 10:06:05;;;;;;;6.27;5.70;;;13.50;99.90;;;;;;5025231;28;20531;-71
2022/04/18 10:08:34;;;;;;;8.40;6.77;;;13.60;99.90;;;;;;5040139;28;20476;-72
2022/04/18 10:11:04;;;;;;;9.93;7.00;;;13.70;99.90;;;;;;5039360;28;20511;-71
2022/04/18 10:13:34;;;;;;;8.10;7.30;;;13.80;99.90;;;;;;5047195;27;20527;-71
2022/04/18 10:16:05;;;;;;;8.20;7.03;;;13.90;99.80;;;;;;5047563;28;20939;-73
2022/04/18 10:18:41;;;;;;;7.67;6.17;;;14.00;99.70;;;;;;5045509;27;20436;-76
2022/04/18 10:21:28;;;;;;;9.77;8.30;;;14.00;99.60;;;;;;5042924;27;20685;-72
2022/04/18 10:24:25;;;;;;;7.13;6.17;;;13.90;99.40;;;;;;5038940;27;20453;-74
2022/04/18 10:27:26;;;;;;;6.83;6.17;;;13.90;99.20;;;;;;5007068;28;20537;-73
2022/04/18 10:29:55;;;;;;;6.27;5.77;;;14.00;98.70;;;;;;5035897;28;20495;-73
2022/04/18 10:32:26;;;;;;;7.33;6.63;;;14.10;98.90;;;;;;5024678;27;20622;-73
2022/04/18 10:34:59;;;;;;;6.73;6.03;;;14.00;98.40;;;;;;5031333;28;20789;-73
2022/04/18 10:37:29;;;;;;;6.10;5.50;;;14.10;98.60;;;;;;5019003;28;20673;-72
2022/04/18 10:39:59;;;;;;;6.63;6.00;;;14.20;98.80;;;;;;5019566;28;20549;-73
2022/04/18 10:42:32;;;;;;;6.63;4.80;;;14.30;98.50;;;;;;5018608;28;20855;-72
2022/04/18 10:45:08;;;;;;;5.67;5.10;;;14.40;99.00;;;;;;5019125;28;20464;-73
2022/04/18 10:48:01;;;;;;;9.00;5.80;;;14.40;98.60;;;;;;5018672;28;20429;-73
2022/04/18 10:50:35;;;;;;;6.20;5.47;;;14.50;98.40;;;;;;5019919;28;20633;-72
2022/04/18 10:53:15;;;;;;;6.00;4.80;;;14.60;97.40;;;;;;5024144;28;20543;-72
2022/04/18 10:56:13;;;;;;;5.63;5.13;;;14.60;97.30;;;;;;5025436;27;20474;-71
2022/04/18 10:58:45;;;;;;;6.23;5.63;;;14.70;97.30;;;;;;5038907;28;20869;-70
2022/04/18 11:01:15;;;;;;;6.70;5.90;;;14.70;97.50;;;;;;5039050;28;20547;-70
2022/04/18 11:04:00;;;;;;;4.07;3.77;;;14.70;97.70;;;;;;5037580;27;20448;-70
2022/04/18 11:06:46;;;;;;;5.17;4.67;;;14.70;98.20;;;;;;5038839;28;20645;-69
2022/04/18 11:09:16;;;;;;;8.17;5.50;;;14.80;97.70;;;;;;5026971;28;20511;-69
2022/04/18 11:11:48;;;;;;;7.60;5.97;;;14.80;97.50;;;;;;5036206;28;20476;-69
2022/04/18 11:14:18;;;;;;;6.73;5.13;;;14.80;97.50;;;;;;5038298;28;20440;-69
2022/04/18 11:16:58;;;;;;;5.47;5.07;;;14.90;97.70;;;;;;5042554;27;20448;-68
2022/04/18 11:19:30;;;;;;;6.63;5.97;;;15.00;97.00;;;;;;5026341;28;20441;-67
2022/04/18 11:22:18;;;;;;;6.17;5.13;;;14.80;97.40;;;;;;5026907;28;20590;-68
2022/04/18 11:25:03;;;;;;;6.00;5.07;;;14.80;97.40;;;;;;5038533;28;20459;-69
2022/04/18 11:27:35;;;;;;;5.43;4.87;;;14.80;96.90;;;;;;5020884;28;20453;-69
2022/04/18 11:30:09;;;;;;;5.87;5.27;;;14.80;97.00;;;;;;5021037;28;20512;-71
2022/04/18 11:32:41;;;;;;;7.53;5.80;;;14.90;97.00;;;;;;5025609;28;20501;-67
2022/04/18 11:35:14;;;;;;;6.90;6.20;;;15.00;97.20;;;;;;5022184;28;20442;-68
2022/04/18 11:37:44;;;;;;;6.70;5.13;;;15.00;97.10;;;;;;5037596;27;20500;-68
2022/04/18 11:40:15;;;;;;;8.57;5.87;;;15.10;96.90;;;;;;5038699;28;20475;-68
2022/04/18 11:42:45;;;;;;;5.67;5.00;;;15.20;96.50;;;;;;5027793;28;20596;-68
2022/04/18 11:45:23;;;;;;;5.97;5.37;;;15.20;96.70;;;;;;5019089;28;21067;-68
2022/04/18 11:47:51;;;;;;;5.50;5.00;;;15.20;96.30;;;;;;5018627;28;20829;-66
2022/04/18 11:50:21;;;;;;;5.97;5.37;;;15.30;96.00;;;;;;5018424;27;20483;-69
2022/04/18 11:53:00;;;;;;;7.17;5.50;;;15.30;96.10;;;;;;5019368;28;21250;-68
2022/04/18 11:55:32;;;;;;;7.00;4.80;;;15.30;95.70;;;;;;5019390;28;20514;-68
2022/04/18 11:58:01;;;;;;;8.50;6.23;;;15.40;95.80;;;;;;5020068;27;20521;-68
2022/04/18 12:09:01;;;;;;;5.20;4.70;;;15.50;95.10;;;;;;5034000;28;20436;-68
2022/04/18 12:11:34;;;;;;;5.83;4.30;;;15.50;94.80;;;;;;5039636;28;20480;-69
2022/04/18 12:14:04;;;;;;;4.60;3.80;;;15.60;94.70;;;;;;5039559;28;20451;-68
2022/04/18 12:16:32;;;;;;;5.43;3.57;;;15.60;94.40;;;;;;5038258;28;20444;-68
2022/04/18 12:19:00;;;;;;;3.80;3.50;;;15.50;94.40;;;;;;5037719;28;20451;-68
2022/04/18 12:21:29;;;;;;;3.40;3.10;;;15.50;94.60;;;;;;5035365;28;20754;-68
2022/04/18 12:23:58;;;;;;;4.23;3.50;;;15.50;95.20;;;;;;5030615;27;21046;-68
2022/04/18 12:26:27;;;;;;;3.13;2.67;;;15.60;95.70;;;;;;5036751;28;20474;-67
2022/04/18 12:29:00;;;;;;;2.83;2.63;;;15.70;94.90;;;;;;5036481;28;20527;-70
2022/04/18 12:31:29;;;;;;;3.10;2.80;;;15.70;94.00;;;;;;5036353;28;20488;-69
2022/04/18 12:33:58;;;;;;;3.70;3.03;;;15.60;94.00;;;;;;5037032;28;20443;-69
2022/04/18 12:36:27;;;;;;;3.67;2.80;;;15.70;93.60;;;;;;5037342;28;20443;-69
2022/04/18 12:38:55;;;;;;;3.03;2.30;;;15.60;93.60;;;;;;5036389;28;20452;-69
2022/04/18 12:41:30;;;;;;;2.47;2.37;;;15.70;93.60;;;;;;5036667;28;21098;-67
2022/04/18 12:43:58;;;;;;;2.67;2.40;;;15.70;93.00;;;;;;5035648;28;20448;-68
2022/04/18 12:46:26;;;;;;;3.30;3.00;;;15.70;92.90;;;;;;5035845;27;20877;-67
2022/04/18 12:48:56;;;;;;;3.53;2.60;;;15.70;93.10;;;;;;5036165;28;20935;-68
2022/04/18 12:51:31;;;;;;;4.30;2.93;;;15.70;93.40;;;;;;5036106;28;20547;-69
2022/04/18 12:53:59;;;;;;;4.53;3.13;;;15.80;93.60;;;;;;5035652;28;20602;-67
2022/04/18 12:56:29;;;;;;;3.43;2.83;;;15.80;93.00;;;;;;5036940;28;20443;-68
2022/04/18 12:59:02;;;;;;;4.90;3.30;;;15.90;93.30;;;;;;5035858;28;20445;-69
2022/04/18 13:01:34;;;;;;;3.43;3.13;;;16.00;93.50;;;;;;5036850;28;20455;-69
2022/04/18 13:04:05;;;;;;;2.97;2.77;;;16.00;93.70;;;;;;5036544;28;20680;-68
2022/04/18 13:06:35;;;;;;;3.13;2.93;;;16.00;93.50;;;;;;5041818;28;20436;-69
2022/04/18 13:09:07;;;;;;;2.60;2.40;;;16.10;93.40;;;;;;5040907;28;20451;-67
2022/04/18 13:11:39;;;;;;;3.10;2.80;;;16.20;92.90;;;;;;5018474;27;21057;-68
2022/04/18 13:14:09;;;;;;;3.00;2.80;;;16.10;93.00;;;;;;5037867;28;20531;-68
2022/04/18 13:16:39;;;;;;;2.50;2.40;;;16.10;92.80;;;;;;5012320;28;20484;-68
2022/04/18 13:19:10;;;;;;;2.40;2.30;;;16.20;93.20;;;;;;5023643;28;21010;-67
2022/04/18 13:21:40;;;;;;;3.67;2.50;;;16.30;93.00;;;;;;5029746;28;20555;-67
2022/04/18 13:24:09;;;;;;;3.30;2.80;;;16.30;92.20;;;;;;5037092;28;20748;-68
2022/04/18 13:26:38;;;;;;;2.33;2.23;;;16.40;92.90;;;;;;5021608;28;20445;-67
2022/04/18 13:29:07;;;;;;;2.20;2.00;;;16.40;93.20;;;;;;5022140;27;20468;-69
2022/04/18 13:31:35;;;;;;;5.17;2.80;;;16.40;92.50;;;;;;5038977;28;20771;-68